Time,TemperatureF,DewpointF,PressureIn,WindDirection,WindDirectionDegrees,WindSpeedMPH,WindSpeedGustMPH,Humidity,HourlyPrecipIn,Conditions,Clouds,dailyrainin,SoftwareType,DateUTC
2013-03-05 00:00:00,32.1,19.0,29.95,NNE,22,0.0,0.0,58,0.00,,---,43.63,VWS V14.01,2013-03-05 05:00:00,
2013-03-05 00:05:00,32.1,19.0,29.95,NNE,22,0.0,0.0,58,0.00,,---,0.00,VWS V14.01,2013-03-05 05:05:00,
2013-03-05 00:10:00,32.1,19.0,29.95,NNW,338,2.0,2.0,58,0.00,,---,0.00,VWS V14.01,2013-03-05 05:10:00,
2013-03-05 10:42:00,32.1,19.0,29.95,NW,315,3.3,3.3,58,0.00,,---,0.00,VWS V14.01,2013-03-05 15:42:00,
2013-03-05 10:47:00,48.5,30.2,30.02,WNW,292,0.0,0.0,49,0.00,,---,0.00,VWS V14.01,2013-03-05 15:47:00,
2013-03-05 10:52:00,49.1,30.3,30.01,NNW,338,2.0,2.0,48,0.00,,---,0.00,VWS V14.01,2013-03-05 15:52:00,
2013-03-05 10:57:00,49.6,30.7,30.01,NNW,338,2.9,2.9,48,0.00,,---,0.00,VWS V14.01,2013-03-05 15:57:00,
2013-03-05 11:02:00,49.6,30.7,30.01,NNW,338,2.9,2.9,48,0.00,,---,0.00,VWS V14.01,2013-03-05 16:02:00,
2013-03-05 11:07:00,50.5,31.0,30.01,SW,225,0.0,0.0,47,0.00,,---,0.00,VWS V14.01,2013-03-05 16:07:00,
2013-03-05 11:12:00,50.5,31.0,30.00,SW,225,0.0,0.0,47,0.00,,---,0.00,VWS V14.01,2013-03-05 16:12:00,
2013-03-05 11:17:00,50.5,31.0,30.01,SW,225,0.0,0.0,47,0.00,,---,0.00,VWS V14.01,2013-03-05 16:17:00,
2013-03-05 11:22:00,50.5,31.0,30.01,SW,225,0.0,0.0,47,0.00,,---,0.00,VWS V14.01,2013-03-05 16:22:00,
2013-03-05 11:27:00,50.5,31.0,30.01,SW,225,0.0,0.0,47,0.00,,---,0.00,VWS V14.01,2013-03-05 16:27:00,
2013-03-05 11:32:00,50.7,31.7,30.00,SSW,202,0.0,0.0,48,0.00,,---,0.00,VWS V14.01,2013-03-05 16:32:00,
2013-03-05 11:37:00,50.7,31.7,30.00,WSW,248,0.0,0.0,48,0.00,,---,0.00,VWS V14.01,2013-03-05 16:37:00,
2013-03-05 11:42:00,50.9,31.9,30.00,WSW,248,0.0,0.0,48,0.00,,---,0.00,VWS V14.01,2013-03-05 16:42:00,
2013-03-05 11:47:00,51.2,31.7,30.00,WNW,292,0.0,0.0,47,0.00,,---,0.00,VWS V14.01,2013-03-05 16:47:00,
2013-03-05 11:49:00,51.4,31.9,30.00,WSW,248,0.0,0.0,47,0.00,,---,0.00,VWS V14.01,2013-03-05 16:49:00,
2013-03-05 18:06:00,51.4,31.9,30.00,WSW,248,0.0,0.0,47,0.00,,---,0.00,VWS V14.01,2013-03-05 23:06:00,
2013-03-05 18:11:00,41.3,25.9,29.98,SSW,202,0.0,0.0,54,0.00,,---,0.00,VWS V14.01,2013-03-05 23:11:00,
2013-03-05 18:16:00,40.8,25.5,29.98,South,180,0.0,0.0,54,0.00,,---,0.00,VWS V14.01,2013-03-05 23:16:00,
2013-03-05 18:21:00,40.1,25.2,29.98,South,180,0.0,0.0,55,0.00,,---,0.00,VWS V14.01,2013-03-05 23:21:00,
2013-03-05 18:26:00,39.5,24.7,29.98,South,180,0.0,0.0,55,0.00,,---,0.00,VWS V14.01,2013-03-05 23:26:00,
2013-03-05 18:31:00,39.3,24.9,29.98,South,180,0.0,0.0,56,0.00,,---,0.00,VWS V14.01,2013-03-05 23:31:00,
2013-03-05 18:36:00,38.8,24.9,29.98,South,180,0.0,0.0,57,0.00,,---,0.00,VWS V14.01,2013-03-05 23:36:00,
2013-03-05 18:41:00,38.4,24.5,29.98,South,180,0.0,0.0,57,0.00,,---,0.00,VWS V14.01,2013-03-05 23:41:00,
2013-03-05 18:46:00,38.1,24.6,29.98,South,180,0.0,0.0,58,0.00,,---,0.00,VWS V14.01,2013-03-05 23:46:00,
2013-03-05 18:51:00,37.9,24.9,29.98,SE,135,0.0,0.0,59,0.00,,---,0.00,VWS V14.01,2013-03-05 23:51:00,
2013-03-05 18:56:00,37.5,24.5,29.98,SE,135,0.0,0.0,59,0.00,,---,0.00,VWS V14.01,2013-03-05 23:56:00,
2013-03-05 19:01:00,37.2,24.6,29.98,South,180,0.0,0.0,60,0.00,,---,0.00,VWS V14.01,2013-03-06 00:01:00,
2013-03-05 19:06:00,36.8,24.2,29.98,South,180,0.0,0.0,60,0.00,,---,0.00,VWS V14.01,2013-03-06 00:06:00,
2013-03-05 19:11:00,36.5,24.0,29.99,South,180,0.0,0.0,60,0.00,,---,0.00,VWS V14.01,2013-03-06 00:11:00,
2013-03-05 22:30:00,36.5,24.0,29.99,South,180,0.0,0.0,60,0.00,,---,0.00,VWS V14.01,2013-03-06 03:30:00,
2013-03-05 22:35:00,31.6,23.6,29.94,SE,135,0.0,0.0,72,0.00,,---,0.00,VWS V14.01,2013-03-06 03:35:00,
2013-03-05 22:40:00,31.4,23.4,29.93,SE,135,0.0,0.0,72,0.00,,---,0.00,VWS V14.01,2013-03-06 03:40:00,
2013-03-05 22:45:00,31.4,23.8,29.93,SE,135,0.0,0.0,73,0.00,,---,0.00,VWS V14.01,2013-03-06 03:45:00,
2013-03-05 22:50:00,31.2,23.6,29.93,SE,135,0.0,0.0,73,0.00,,---,0.00,VWS V14.01,2013-03-06 03:50:00,
2013-03-05 22:55:00,31.2,23.9,29.93,SE,135,0.0,0.0,74,0.00,,---,0.00,VWS V14.01,2013-03-06 03:55:00,
2013-03-05 23:00:00,31.4,24.1,29.92,SE,135,0.0,0.0,74,0.00,,---,0.00,VWS V14.01,2013-03-06 04:00:00,
2013-03-05 23:05:00,31.6,24.6,29.92,ESE,112,0.0,0.0,75,0.00,,---,0.00,VWS V14.01,2013-03-06 04:05:00,
2013-03-05 23:10:00,31.8,24.8,29.91,SE,135,0.0,0.0,75,0.00,,---,0.00,VWS V14.01,2013-03-06 04:10:00,
2013-03-05 23:15:00,32.1,25.4,29.91,ESE,112,0.0,0.0,76,0.00,,---,0.00,VWS V14.01,2013-03-06 04:15:00,
2013-03-05 23:20:00,32.9,26.8,29.91,SE,135,2.2,2.2,78,0.00,,---,0.00,VWS V14.01,2013-03-06 04:20:00,
2013-03-05 23:25:00,33.4,27.3,29.91,SSE,158,2.0,2.0,78,0.00,,---,0.00,VWS V14.01,2013-03-06 04:25:00,
2013-03-05 23:30:00,33.9,28.4,29.90,SE,135,2.9,2.9,80,0.00,,---,0.00,VWS V14.01,2013-03-06 04:30:00,
2013-03-05 23:35:00,34.3,28.8,29.90,SE,135,0.0,0.0,80,0.00,,---,0.00,VWS V14.01,2013-03-06 04:35:00,
2013-03-05 23:40:00,35.2,29.4,29.89,SE,135,0.0,0.0,79,0.00,,---,0.00,VWS V14.01,2013-03-06 04:40:00,
2013-03-05 23:42:00,35.2,29.7,29.90,SE,135,0.0,0.0,80,0.00,,---,0.00,VWS V14.01,2013-03-06 04:42:00,